Time;durP1;ratioP1;P1;durP2;ratioP2;P2;SDS_P1;SDS_P2;PMS_P1;PMS_P2;Temp;Humidity;BMP_temperature;BMP_pressure;BME280_temperature;BME280_humidity;BME280_pressure;Samples;Min_cycle;Max_cycle;Signal;HPM_P1;HPM_P2
2021/05/02 00:00:51;;;;;;;18.73;9.68;;;;;;;;;;5097451;28;20201;-56
2021/05/02 00:03:17;;;;;;;18.05;9.73;;;;;;;;;;5097620;28;20197;-55
2021/05/02 00:05:44;;;;;;;11.20;7.95;;;;;;;;;;5087945;28;20188;-54
2021/05/02 00:08:12;;;;;;;13.27;9.10;;;;;;;;;;5078211;28;20206;-52
2021/05/02 00:10:39;;;;;;;15.48;10.90;;;;;;;;;;5077810;28;20211;-59
2021/05/02 00:13:07;;;;;;;13.65;9.45;;;;;;;;;;5078408;28;20210;-56
2021/05/02 00:15:35;;;;;;;15.38;10.15;;;;;;;;;;5077207;28;20253;-53
2021/05/02 00:18:02;;;;;;;16.23;10.65;;;;;;;;;;5078210;28;20221;-50
2021/05/02 00:20:29;;;;;;;15.65;11.23;;;;;;;;;;5078717;28;20207;-55
2021/05/02 00:23:09;;;;;;;17.65;12.80;;;;;;;;;;5097935;28;20210;-53
2021/05/02 00:25:35;;;;;;;22.20;13.57;;;;;;;;;;5097797;28;20247;-49
2021/05/02 00:28:06;;;;;;;20.13;12.43;;;;;;;;;;5097198;28;20210;-51
2021/05/02 00:30:55;;;;;;;16.38;11.32;;;;;;;;;;5098005;28;20220;-58
2021/05/02 00:33:23;;;;;;;17.35;10.85;;;;;;;;;;5096920;28;20193;-53
2021/05/02 00:35:52;;;;;;;13.48;9.82;;;;;;;;;;5097660;28;20239;-51
2021/05/02 00:38:30;;;;;;;11.90;9.80;;;;;;;;;;5097665;28;20605;-49
2021/05/02 00:40:58;;;;;;;14.05;9.32;;;;;;;;;;5077354;28;20222;-54
2021/05/02 00:43:31;;;;;;;11.60;8.65;;;;;;;;;;5087587;28;20314;-56
2021/05/02 00:46:02;;;;;;;15.85;9.48;;;;;;;;;;5097140;28;20206;-47
2021/05/02 00:48:34;;;;;;;11.75;9.43;;;;;;;;;;5097832;28;20210;-49
2021/05/02 00:51:16;;;;;;;13.10;9.05;;;;;;;;;;5097397;28;20190;-58
2021/05/02 00:53:47;;;;;;;11.10;8.43;;;;;;;;;;5097457;28;20200;-58
2021/05/02 00:56:17;;;;;;;13.95;10.52;;;;;;;;;;5094114;28;20189;-55
2021/05/02 00:58:51;;;;;;;15.82;9.43;;;;;;;;;;5097038;28;20210;-55
2021/05/02 01:01:19;;;;;;;11.88;9.45;;;;;;;;;;5076883;28;20222;-58
2021/05/02 01:03:49;;;;;;;11.60;9.70;;;;;;;;;;5077134;28;20210;-57
2021/05/02 01:06:17;;;;;;;15.60;10.65;;;;;;;;;;5079432;28;20206;-56
2021/05/02 01:08:44;;;;;;;11.55;9.77;;;;;;;;;;5085735;28;20190;-57
2021/05/02 01:11:13;;;;;;;15.85;10.13;;;;;;;;;;5085429;28;20213;-57
2021/05/02 01:13:54;;;;;;;14.50;8.85;;;;;;;;;;5096448;28;20210;-52
2021/05/02 01:16:20;;;;;;;11.57;10.02;;;;;;;;;;5096123;28;20202;-49
2021/05/02 01:18:49;;;;;;;11.13;9.25;;;;;;;;;;5096599;28;20201;-58
2021/05/02 01:21:37;;;;;;;15.88;11.55;;;;;;;;;;5096584;28;20337;-53
2021/05/02 01:24:13;;;;;;;14.68;10.25;;;;;;;;;;5081489;28;20206;-54
2021/05/02 01:26:42;;;;;;;15.00;10.32;;;;;;;;;;5091461;28;20224;-55
2021/05/02 01:29:09;;;;;;;12.50;9.77;;;;;;;;;;5097140;28;20206;-52
2021/05/02 01:31:36;;;;;;;15.38;11.52;;;;;;;;;;5097003;28;20432;-52
2021/05/02 01:34:04;;;;;;;14.90;10.60;;;;;;;;;;5096607;28;20220;-55
2021/05/02 01:36:35;;;;;;;13.20;10.90;;;;;;;;;;5097442;28;20206;-53
2021/05/02 01:39:05;;;;;;;17.33;11.40;;;;;;;;;;5095977;28;20209;-60
2021/05/02 01:41:33;;;;;;;15.45;11.55;;;;;;;;;;5096467;28;20182;-52
2021/05/02 01:44:00;;;;;;;16.55;10.85;;;;;;;;;;5096460;28;20202;-51
2021/05/02 01:46:31;;;;;;;13.55;10.65;;;;;;;;;;5097399;28;20217;-56
2021/05/02 01:48:58;;;;;;;16.85;13.13;;;;;;;;;;5097044;28;20280;-53
2021/05/02 01:51:25;;;;;;;16.08;11.70;;;;;;;;;;5096057;28;20200;-54
2021/05/02 01:54:01;;;;;;;17.67;12.50;;;;;;;;;;5096276;28;20189;-55
2021/05/02 01:56:29;;;;;;;19.23;11.95;;;;;;;;;;5096269;28;20198;-55
2021/05/02 01:58:58;;;;;;;19.98;12.70;;;;;;;;;;5096044;28;20210;-55
2021/05/02 02:01:27;;;;;;;16.33;12.18;;;;;;;;;;5095304;28;20220;-54
2021/05/02 02:03:55;;;;;;;16.55;11.68;;;;;;;;;;5078928;28;20234;-57
2021/05/02 02:06:23;;;;;;;18.52;14.23;;;;;;;;;;5076126;28;20321;-55
2021/05/02 02:09:05;;;;;;;21.42;12.90;;;;;;;;;;5076100;28;20241;-54
2021/05/02 02:11:32;;;;;;;20.38;13.57;;;;;;;;;;5075922;28;20203;-56
2021/05/02 02:14:00;;;;;;;18.90;13.93;;;;;;;;;;5076276;28;20179;-56
2021/05/02 02:16:49;;;;;;;18.60;12.85;;;;;;;;;;5075510;28;20278;-51
2021/05/02 02:19:16;;;;;;;17.67;13.85;;;;;;;;;;5075759;28;20218;-54
2021/05/02 02:21:43;;;;;;;18.50;12.90;;;;;;;;;;5075435;28;20222;-54
2021/05/02 02:24:11;;;;;;;18.20;13.85;;;;;;;;;;5075764;28;20194;-52
2021/05/02 02:26:41;;;;;;;16.42;13.00;;;;;;;;;;5075645;28;20527;-57
2021/05/02 02:29:11;;;;;;;19.58;13.48;;;;;;;;;;5075395;28;20221;-49
2021/05/02 02:31:45;;;;;;;16.83;12.93;;;;;;;;;;5075029;28;20222;-55
2021/05/02 02:34:14;;;;;;;19.17;12.65;;;;;;;;;;5075295;28;20727;-59
2021/05/02 02:36:41;;;;;;;18.38;13.20;;;;;;;;;;5075693;28;20198;-53
2021/05/02 02:39:16;;;;;;;22.10;14.32;;;;;;;;;;5075134;28;20241;-52
2021/05/02 02:41:44;;;;;;;17.60;13.60;;;;;;;;;;5087097;28;20241;-50
2021/05/02 02:44:12;;;;;;;17.27;12.82;;;;;;;;;;5096059;28;20208;-58
2021/05/02 02:49:44;;;;;;;20.30;13.77;;;;;;;;;;5081085;28;20218;-49
2021/05/02 02:52:10;;;;;;;20.67;14.38;;;;;;;;;;5075443;28;20206;-54
2021/05/02 02:55:06;;;;;;;20.10;13.15;;;;;;;;;;5075529;28;20239;-53
2021/05/02 02:57:33;;;;;;;19.25;13.40;;;;;;;;;;5075566;28;20206;-51
2021/05/02 03:00:02;;;;;;;20.33;13.20;;;;;;;;;;5075484;28;20210;-47
2021/05/02 03:02:59;;;;;;;20.92;14.18;;;;;;;;;;5075043;28;20194;-48
2021/05/02 03:05:26;;;;;;;17.10;12.73;;;;;;;;;;5075021;28;20194;-49
2021/05/02 03:07:53;;;;;;;16.65;13.05;;;;;;;;;;5075506;28;20206;-54
2021/05/02 03:10:21;;;;;;;21.83;12.82;;;;;;;;;;5075481;28;20217;-58
2021/05/02 03:12:50;;;;;;;18.10;14.05;;;;;;;;;;5075827;28;20205;-53
2021/05/02 03:15:29;;;;;;;19.10;13.15;;;;;;;;;;5075507;28;20203;-57
2021/05/02 03:18:03;;;;;;;19.02;13.40;;;;;;;;;;5075402;28;20217;-55
2021/05/02 03:20:33;;;;;;;19.70;14.80;;;;;;;;;;5075728;28;20230;-55
2021/05/02 03:23:07;;;;;;;16.98;13.40;;;;;;;;;;5075104;28;20207;-54
2021/05/02 03:25:35;;;;;;;19.50;15.05;;;;;;;;;;5074921;28;20210;-57
2021/05/02 03:28:04;;;;;;;19.77;14.48;;;;;;;;;;5075387;28;20207;-57
2021/05/02 03:30:34;;;;;;;18.15;13.75;;;;;;;;;;5075624;28;20201;-52
2021/05/02 03:33:03;;;;;;;21.00;15.57;;;;;;;;;;5075133;28;20605;-51
2021/05/02 03:35:32;;;;;;;19.42;13.82;;;;;;;;;;5075302;28;20281;-53
2021/05/02 03:38:35;;;;;;;18.75;14.30;;;;;;;;;;5075437;28;20199;-52
2021/05/02 03:41:02;;;;;;;19.02;13.75;;;;;;;;;;5074544;28;20218;-53
2021/05/02 03:43:29;;;;;;;24.55;15.68;;;;;;;;;;5058248;28;20271;-53
2021/05/02 03:46:22;;;;;;;17.60;13.43;;;;;;;;;;5075913;28;20224;-56
2021/05/02 03:48:50;;;;;;;23.00;14.00;;;;;;;;;;5075519;28;20300;-52
2021/05/02 03:51:16;;;;;;;20.17;14.85;;;;;;;;;;5078210;28;20210;-58
2021/05/02 03:54:08;;;;;;;22.27;14.27;;;;;;;;;;5076462;28;20214;-54
2021/05/02 03:56:36;;;;;;;21.80;14.98;;;;;;;;;;5058878;28;20192;-52
2021/05/02 03:59:08;;;;;;;16.83;12.75;;;;;;;;;;5069877;28;20202;-54
2021/05/02 04:01:47;;;;;;;18.85;14.00;;;;;;;;;;5078521;28;20198;-54
2021/05/02 04:04:15;;;;;;;20.42;13.73;;;;;;;;;;5078545;28;20221;-48
2021/05/02 04:06:42;;;;;;;21.15;14.98;;;;;;;;;;5077982;28;20211;-49
2021/05/02 04:09:46;;;;;;;20.00;15.30;;;;;;;;;;5078246;28;20214;-53
2021/05/02 04:12:13;;;;;;;18.30;14.00;;;;;;;;;;5078234;28;20210;-47
2021/05/02 04:14:40;;;;;;;18.58;14.48;;;;;;;;;;5078003;28;20218;-57
2021/05/02 04:17:25;;;;;;;21.67;14.95;;;;;;;;;;5078181;28;20221;-54
2021/05/02 04:19:53;;;;;;;24.80;14.70;;;;;;;;;;5077913;28;20285;-51
2021/05/02 04:22:21;;;;;;;23.20;16.38;;;;;;;;;;5077792;28;20214;-52
2021/05/02 04:24:48;;;;;;;20.50;15.48;;;;;;;;;;5077956;28;20182;-52
2021/05/02 04:27:15;;;;;;;17.58;14.30;;;;;;;;;;5085417;28;20301;-55
2021/05/02 04:29:42;;;;;;;19.98;14.75;;;;;;;;;;5098000;28;20401;-52
2021/05/02 04:32:46;;;;;;;19.35;14.38;;;;;;;;;;5098077;28;20178;-54
2021/05/02 04:35:14;;;;;;;24.92;15.23;;;;;;;;;;5097479;28;20233;-52
2021/05/02 04:37:41;;;;;;;21.20;15.18;;;;;;;;;;5097852;28;20178;-56
2021/05/02 04:40:15;;;;;;;24.55;15.70;;;;;;;;;;5098066;28;20190;-49
2021/05/02 04:42:42;;;;;;;26.05;15.25;;;;;;;;;;5097889;28;20209;-52
2021/05/02 04:45:09;;;;;;;22.08;14.52;;;;;;;;;;5097583;28;20206;-54
2021/05/02 04:47:38;;;;;;;18.83;14.50;;;;;;;;;;5097928;28;20221;-49
2021/05/02 04:50:06;;;;;;;20.40;13.73;;;;;;;;;;5097010;28;20210;-51
2021/05/02 04:52:34;;;;;;;23.13;14.75;;;;;;;;;;5097302;28;20192;-57
2021/05/02 04:55:20;;;;;;;21.27;14.57;;;;;;;;;;5097099;28;20214;-53
2021/05/02 04:57:47;;;;;;;23.50;14.93;;;;;;;;;;5097147;28;20193;-54
2021/05/02 05:00:14;;;;;;;20.08;14.13;;;;;;;;;;5097621;28;20226;-50
2021/05/02 05:02:45;;;;;;;19.77;13.88;;;;;;;;;;5096284;28;20240;-52
2021/05/02 05:05:12;;;;;;;20.08;13.48;;;;;;;;;;5097348;28;20189;-57
2021/05/02 05:07:40;;;;;;;20.55;14.05;;;;;;;;;;5096780;28;20428;-53
2021/05/02 05:10:16;;;;;;;25.02;12.32;;;;;;;;;;5097394;28;20213;-48
2021/05/02 05:12:43;;;;;;;19.17;12.93;;;;;;;;;;5097261;28;20210;-48
2021/05/02 05:15:10;;;;;;;19.27;12.07;;;;;;;;;;5096815;28;20244;-48
2021/05/02 05:20:41;;;;;;;19.25;13.15;;;;;;;;;;5082290;28;20213;-57
2021/05/02 05:23:08;;;;;;;18.80;11.82;;;;;;;;;;5077088;28;20228;-49
2021/05/02 05:25:35;;;;;;;19.10;11.80;;;;;;;;;;5077126;28;20270;-54
2021/05/02 05:28:02;;;;;;;15.60;11.18;;;;;;;;;;5077340;28;20194;-50
2021/05/02 05:33:33;;;;;;;14.82;11.02;;;;;;;;;;5076511;28;20579;-48
2021/05/02 05:36:00;;;;;;;16.30;10.57;;;;;;;;;;5076143;28;20222;-55
2021/05/02 05:38:39;;;;;;;18.10;11.55;;;;;;;;;;5076613;28;20562;-53
2021/05/02 05:41:06;;;;;;;14.90;9.88;;;;;;;;;;5076633;28;20195;-55
2021/05/02 05:43:33;;;;;;;13.13;9.30;;;;;;;;;;5076484;28;20209;-51
2021/05/02 05:46:06;;;;;;;14.80;10.55;;;;;;;;;;5076182;28;20211;-50
2021/05/02 05:48:33;;;;;;;14.05;9.23;;;;;;;;;;5076333;28;20198;-51
2021/05/02 05:51:00;;;;;;;13.57;10.00;;;;;;;;;;5075397;28;20205;-58
2021/05/02 05:53:43;;;;;;;12.73;7.78;;;;;;;;;;5075752;28;20205;-57
2021/05/02 05:56:10;;;;;;;14.55;8.15;;;;;;;;;;5075165;28;20241;-54
2021/05/02 05:58:37;;;;;;;14.93;9.00;;;;;;;;;;5075220;28;20195;-59
2021/05/02 06:01:16;;;;;;;11.90;7.97;;;;;;;;;;5075283;28;20198;-52
2021/05/02 06:03:43;;;;;;;13.35;8.20;;;;;;;;;;5075300;28;20217;-56
2021/05/02 06:06:10;;;;;;;14.55;8.85;;;;;;;;;;5074821;28;20217;-59
2021/05/02 06:08:52;;;;;;;12.73;8.45;;;;;;;;;;5075335;28;20210;-54
2021/05/02 06:11:19;;;;;;;15.10;8.05;;;;;;;;;;5075611;28;20194;-50
2021/05/02 06:13:46;;;;;;;12.93;8.32;;;;;;;;;;5074960;28;20211;-51
2021/05/02 06:16:31;;;;;;;13.77;7.78;;;;;;;;;;5075618;28;20225;-56
2021/05/02 06:18:59;;;;;;;10.50;7.32;;;;;;;;;;5075531;28;20221;-49
2021/05/02 06:21:26;;;;;;;10.38;7.50;;;;;;;;;;5075169;28;20229;-56
2021/05/02 06:24:29;;;;;;;16.58;7.95;;;;;;;;;;5075352;28;20222;-55
2021/05/02 06:26:57;;;;;;;13.15;7.82;;;;;;;;;;5075027;28;20194;-56
2021/05/02 06:29:23;;;;;;;10.95;7.13;;;;;;;;;;5075508;28;20202;-53
2021/05/02 06:31:50;;;;;;;17.35;8.07;;;;;;;;;;5075398;28;20229;-52
2021/05/02 06:34:17;;;;;;;11.00;6.85;;;;;;;;;;5074980;28;20484;-55
2021/05/02 06:36:54;;;;;;;11.90;5.95;;;;;;;;;;5075055;28;20199;-56
2021/05/02 06:39:21;;;;;;;19.27;8.43;;;;;;;;;;5057615;28;20194;-58
2021/05/02 06:41:48;;;;;;;11.85;6.75;;;;;;;;;;5055129;28;20257;-58
2021/05/02 06:44:18;;;;;;;10.73;6.15;;;;;;;;;;5060809;28;20221;-52
2021/05/02 06:46:45;;;;;;;8.73;5.57;;;;;;;;;;5087146;28;20303;-55
2021/05/02 06:49:12;;;;;;;11.55;5.50;;;;;;;;;;5095012;28;20214;-53
2021/05/02 06:51:58;;;;;;;8.30;5.95;;;;;;;;;;5094681;28;20185;-51
2021/05/02 06:54:25;;;;;;;13.05;6.43;;;;;;;;;;5095387;28;20193;-54
2021/05/02 06:56:54;;;;;;;9.70;4.97;;;;;;;;;;5095482;28;20197;-57
2021/05/02 07:02:32;;;;;;;11.90;5.13;;;;;;;;;;5095180;28;20188;-56
2021/05/02 07:05:08;;;;;;;6.68;4.60;;;;;;;;;;5095286;28;20236;-58
2021/05/02 07:07:59;;;;;;;15.30;5.57;;;;;;;;;;5094810;28;20221;-56
2021/05/02 07:10:26;;;;;;;9.95;4.70;;;;;;;;;;5094821;28;20213;-52
2021/05/02 07:12:53;;;;;;;9.50;4.90;;;;;;;;;;5095089;28;20194;-56
2021/05/02 07:15:22;;;;;;;8.90;5.15;;;;;;;;;;5094483;28;20221;-57
2021/05/02 07:17:50;;;;;;;12.50;5.15;;;;;;;;;;5094578;28;20209;-52
2021/05/02 07:20:18;;;;;;;8.10;5.03;;;;;;;;;;5094472;28;20190;-58
2021/05/02 07:22:51;;;;;;;8.15;4.45;;;;;;;;;;5093917;28;20361;-56
2021/05/02 07:25:22;;;;;;;8.98;5.15;;;;;;;;;;5097212;28;20268;-58
2021/05/02 07:27:49;;;;;;;8.68;4.68;;;;;;;;;;5098674;28;20206;-48
2021/05/02 07:30:32;;;;;;;9.00;4.67;;;;;;;;;;5098964;28;20182;-59
2021/05/02 07:33:00;;;;;;;10.40;4.20;;;;;;;;;;5098776;28;20443;-56
2021/05/02 07:35:27;;;;;;;7.70;4.20;;;;;;;;;;5098931;28;20225;-51
2021/05/02 07:38:12;;;;;;;6.97;3.60;;;;;;;;;;5098202;28;20212;-57
2021/05/02 07:40:39;;;;;;;10.75;5.10;;;;;;;;;;5078778;28;20206;-59
2021/05/02 07:43:06;;;;;;;10.80;3.22;;;;;;;;;;5092333;28;20279;-58
2021/05/02 07:45:32;;;;;;;7.57;2.40;;;;;;;;;;5096820;28;20294;-51
2021/05/02 07:48:01;;;;;;;6.57;2.38;;;;;;;;;;5097591;28;20428;-58
2021/05/02 07:50:42;;;;;;;5.90;2.85;;;;;;;;;;5097296;28;20209;-54
2021/05/02 07:53:09;;;;;;;6.95;3.50;;;;;;;;;;5097445;28;20201;-59
2021/05/02 07:55:36;;;;;;;5.70;3.20;;;;;;;;;;5098027;28;20214;-58
2021/05/02 07:58:16;;;;;;;10.27;3.15;;;;;;;;;;5097987;28;20206;-53
2021/05/02 08:00:42;;;;;;;7.13;2.20;;;;;;;;;;5081447;28;20238;-52
2021/05/02 08:03:10;;;;;;;11.02;4.70;;;;;;;;;;5077667;28;20197;-55
2021/05/02 08:05:54;;;;;;;7.53;3.22;;;;;;;;;;5077134;28;20620;-56
2021/05/02 08:08:20;;;;;;;9.88;3.92;;;;;;;;;;5076900;28;20202;-58
2021/05/02 08:10:47;;;;;;;7.88;2.95;;;;;;;;;;5077757;28;20206;-59
2021/05/02 08:13:17;;;;;;;6.03;3.10;;;;;;;;;;5077483;28;20207;-55
2021/05/02 08:15:44;;;;;;;13.98;2.60;;;;;;;;;;5076566;28;20261;-53
2021/05/02 08:18:12;;;;;;;8.02;2.75;;;;;;;;;;5077283;28;20214;-55
2021/05/02 08:20:48;;;;;;;6.53;2.25;;;;;;;;;;5058707;28;20269;-58
2021/05/02 08:23:15;;;;;;;4.77;2.83;;;;;;;;;;5057103;28;20201;-51
2021/05/02 08:25:46;;;;;;;5.72;2.80;;;;;;;;;;5058124;28;20434;-59
2021/05/02 08:28:30;;;;;;;9.18;2.83;;;;;;;;;;5069845;28;20194;-56
2021/05/02 08:30:57;;;;;;;5.65;3.05;;;;;;;;;;5077417;28;20211;-56
2021/05/02 08:33:24;;;;;;;7.45;2.53;;;;;;;;;;5076514;28;20209;-55
2021/05/02 08:36:17;;;;;;;6.10;3.45;;;;;;;;;;5076639;28;20226;-58
2021/05/02 08:38:44;;;;;;;9.80;3.78;;;;;;;;;;5088724;28;20237;-48
2021/05/02 08:41:11;;;;;;;4.93;2.95;;;;;;;;;;5097076;28;20214;-59
2021/05/02 08:43:39;;;;;;;9.77;2.70;;;;;;;;;;5096812;28;20222;-55
2021/05/02 08:46:06;;;;;;;5.65;2.55;;;;;;;;;;5096655;28;20803;-56
2021/05/02 08:48:34;;;;;;;6.03;2.75;;;;;;;;;;5096996;28;20182;-59
2021/05/02 08:51:02;;;;;;;5.70;2.25;;;;;;;;;;5097089;28;20233;-52
2021/05/02 08:53:30;;;;;;;6.80;2.20;;;;;;;;;;5090218;28;20262;-56
2021/05/02 08:55:58;;;;;;;5.93;2.87;;;;;;;;;;5086962;28;20225;-58
2021/05/02 08:58:45;;;;;;;5.20;2.53;;;;;;;;;;5096331;28;20440;-53
2021/05/02 09:01:12;;;;;;;11.27;3.10;;;;;;;;;;5096518;28;20210;-50
2021/05/02 09:03:40;;;;;;;7.40;2.60;;;;;;;;;;5080499;28;20202;-54
2021/05/02 09:06:27;;;;;;;7.67;3.03;;;;;;;;;;5078208;28;20453;-52
2021/05/02 09:08:58;;;;;;;7.53;3.10;;;;;;;;;;5096924;28;20451;-53
2021/05/02 09:11:54;;;;;;;5.83;3.17;;;;;;;;;;5096395;28;20480;-59
2021/05/02 09:14:27;;;;;;;5.20;2.83;;;;;;;;;;5096229;28;20464;-50
2021/05/02 09:16:55;;;;;;;5.77;2.97;;;;;;;;;;5082403;28;20498;-49
2021/05/02 09:19:23;;;;;;;5.40;3.00;;;;;;;;;;5095742;28;20490;-47
2021/05/02 09:21:51;;;;;;;4.73;3.20;;;;;;;;;;5096012;28;20479;-53
2021/05/02 09:24:33;;;;;;;7.27;2.73;;;;;;;;;;5095876;28;20455;-56
2021/05/02 09:27:08;;;;;;;5.93;3.67;;;;;;;;;;5096319;28;20456;-54
2021/05/02 09:29:36;;;;;;;5.50;2.93;;;;;;;;;;5096420;28;20454;-51
2021/05/02 09:32:04;;;;;;;8.03;2.80;;;;;;;;;;5095804;28;20475;-56
2021/05/02 09:34:32;;;;;;;5.27;2.50;;;;;;;;;;5095836;28;20451;-57
2021/05/02 09:37:02;;;;;;;4.47;3.03;;;;;;;;;;5091713;28;20448;-59
2021/05/02 09:39:36;;;;;;;5.90;2.77;;;;;;;;;;5095752;28;20535;-50
2021/05/02 09:42:07;;;;;;;5.80;3.00;;;;;;;;;;5095719;28;20439;-53
2021/05/02 09:44:54;;;;;;;7.93;3.10;;;;;;;;;;5086039;28;20637;-55
2021/05/02 09:47:25;;;;;;;6.73;2.90;;;;;;;;;;5093672;28;20460;-52
2021/05/02 09:50:16;;;;;;;6.47;3.20;;;;;;;;;;5095445;28;20444;-51
2021/05/02 09:52:46;;;;;;;8.00;2.60;;;;;;;;;;5082080;28;20452;-55
2021/05/02 09:55:23;;;;;;;5.70;2.57;;;;;;;;;;5095705;28;20483;-53
2021/05/02 09:58:21;;;;;;;5.13;3.10;;;;;;;;;;5080188;28;20481;-54
2021/05/02 10:00:56;;;;;;;6.00;3.60;;;;;;;;;;5092170;28;20436;-56
2021/05/02 10:03:25;;;;;;;7.00;2.63;;;;;;;;;;5094307;28;20460;-46
2021/05/02 10:05:52;;;;;;;8.57;2.73;;;;;;;;;;5093746;28;20486;-54
2021/05/02 10:08:20;;;;;;;5.93;2.93;;;;;;;;;;5093084;28;20441;-53
2021/05/02 10:11:12;;;;;;;6.10;2.93;;;;;;;;;;5094484;28;20443;-54
2021/05/02 10:13:39;;;;;;;12.93;4.80;;;;;;;;;;5094527;28;20506;-57
2021/05/02 10:16:06;;;;;;;8.57;3.83;;;;;;;;;;5094678;28;20486;-54
2021/05/02 10:18:40;;;;;;;4.10;2.83;;;;;;;;;;5086969;28;20448;-56
2021/05/02 10:21:07;;;;;;;9.77;3.50;;;;;;;;;;5091512;28;20455;-57
2021/05/02 10:26:30;;;;;;;5.87;2.50;;;;;;;;;;5078737;28;20736;-58
2021/05/02 10:28:58;;;;;;;7.63;2.80;;;;;;;;;;5080037;28;20449;-57
2021/05/02 10:31:31;;;;;;;7.10;2.40;;;;;;;;;;5086739;28;20445;-55
2021/05/02 10:33:58;;;;;;;4.97;2.90;;;;;;;;;;5088214;28;20447;-59
2021/05/02 10:36:38;;;;;;;5.43;3.40;;;;;;;;;;5094474;28;20485;-58
2021/05/02 10:39:13;;;;;;;6.00;2.57;;;;;;;;;;5093542;28;20566;-58
2021/05/02 10:41:41;;;;;;;5.83;2.93;;;;;;;;;;5094552;28;20456;-50
2021/05/02 10:44:24;;;;;;;6.47;4.23;;;;;;;;;;5093811;28;20451;-59
2021/05/02 10:47:11;;;;;;;4.60;2.70;;;;;;;;;;5093208;28;20508;-57
2021/05/02 10:49:56;;;;;;;4.93;1.90;;;;;;;;;;5093545;28;20459;-57
2021/05/02 10:52:40;;;;;;;5.93;2.03;;;;;;;;;;5090425;28;20444;-59
2021/05/02 10:55:09;;;;;;;2.93;1.50;;;;;;;;;;5093864;28;20527;-57
2021/05/02 10:57:36;;;;;;;5.27;3.17;;;;;;;;;;5093939;28;20440;-56
2021/05/02 11:00:07;;;;;;;4.63;2.00;;;;;;;;;;5094331;28;20448;-58
2021/05/02 11:02:34;;;;;;;8.60;4.60;;;;;;;;;;5098008;28;20506;-59
2021/05/02 11:05:01;;;;;;;9.77;4.40;;;;;;;;;;5098532;28;20432;-53
2021/05/02 11:07:37;;;;;;;9.10;4.13;;;;;;;;;;5098440;28;20487;-60
2021/05/02 11:10:10;;;;;;;4.60;2.40;;;;;;;;;;5097763;28;20455;-60
2021/05/02 11:12:37;;;;;;;10.17;3.60;;;;;;;;;;5082543;28;20464;-57
2021/05/02 11:15:26;;;;;;;12.10;4.80;;;;;;;;;;5080577;28;20504;-53
2021/05/02 11:17:54;;;;;;;6.80;3.33;;;;;;;;;;5080929;28;20480;-56
2021/05/02 11:20:45;;;;;;;4.67;2.90;;;;;;;;;;5075732;28;20453;-59
2021/05/02 11:23:15;;;;;;;4.30;2.17;;;;;;;;;;5063314;28;20524;-61
2021/05/02 11:25:48;;;;;;;6.40;2.00;;;;;;;;;;5088825;28;20581;-49
2021/05/02 11:28:33;;;;;;;5.73;2.33;;;;;;;;;;5083841;28;20447;-56
2021/05/02 11:31:01;;;;;;;9.37;2.90;;;;;;;;;;5097191;28;20473;-59
2021/05/02 11:33:28;;;;;;;4.00;2.90;;;;;;;;;;5095926;28;20446;-55
2021/05/02 11:35:56;;;;;;;4.97;2.37;;;;;;;;;;5097933;28;20464;-55
2021/05/02 11:38:47;;;;;;;4.53;2.40;;;;;;;;;;5097350;28;20509;-56
2021/05/02 11:41:15;;;;;;;4.47;2.00;;;;;;;;;;5072353;28;20452;-55
2021/05/02 11:43:44;;;;;;;4.07;1.97;;;;;;;;;;5096075;28;20463;-57
2021/05/02 11:46:19;;;;;;;4.67;2.13;;;;;;;;;;5097353;28;20480;-57
2021/05/02 11:48:50;;;;;;;7.60;3.33;;;;;;;;;;5097390;28;20561;-51
2021/05/02 11:51:27;;;;;;;6.43;4.13;;;;;;;;;;5098243;28;20470;-57
2021/05/02 11:54:16;;;;;;;6.77;3.00;;;;;;;;;;5091625;28;20444;-56
2021/05/02 11:56:45;;;;;;;5.47;2.03;;;;;;;;;;5096361;28;20487;-60
2021/05/02 11:59:12;;;;;;;8.40;2.40;;;;;;;;;;5079142;28;20482;-56
2021/05/02 12:01:47;;;;;;;3.97;2.20;;;;;;;;;;5096665;28;20448;-57
2021/05/02 12:06:55;;;;;;;6.97;2.53;;;;;;;;;;5273915;22;20484;-50
2021/05/02 12:09:24;;;;;;;7.80;2.83;;;;;;;;;;5076942;28;20500;-54
2021/05/02 12:11:54;;;;;;;10.10;2.43;;;;;;;;;;5065438;28;20465;-53
2021/05/02 12:14:40;;;;;;;7.20;1.87;;;;;;;;;;5077270;28;20444;-61
2021/05/02 12:17:08;;;;;;;8.60;3.20;;;;;;;;;;5076310;28;20473;-55
2021/05/02 12:19:36;;;;;;;9.53;3.93;;;;;;;;;;5076734;28;20487;-58
2021/05/02 12:25:07;;;;;;;6.53;2.90;;;;;;;;;;5056894;28;20455;-61
2021/05/02 12:27:34;;;;;;;5.50;2.07;;;;;;;;;;5056636;28;20446;-56
2021/05/02 12:30:19;;;;;;;11.00;2.73;;;;;;;;;;5071328;28;20465;-56
2021/05/02 12:32:47;;;;;;;3.53;1.60;;;;;;;;;;5089107;28;20553;-58
2021/05/02 12:35:14;;;;;;;3.10;2.00;;;;;;;;;;5096592;28;20492;-52
2021/05/02 12:38:05;;;;;;;3.97;1.93;;;;;;;;;;5096840;28;20452;-57
2021/05/02 12:43:25;;;;;;;5.40;2.90;;;;;;;;;;5096648;28;20444;-55
2021/05/02 12:49:07;;;;;;;6.53;2.10;;;;;;;;;;5096901;28;20415;-56
2021/05/02 12:51:34;;;;;;;3.40;1.80;;;;;;;;;;5097057;28;20440;-60
2021/05/02 12:54:07;;;;;;;6.40;2.30;;;;;;;;;;5096703;28;20460;-58
2021/05/02 12:56:34;;;;;;;7.30;2.30;;;;;;;;;;5096763;28;20480;-57
2021/05/02 12:59:05;;;;;;;4.00;2.07;;;;;;;;;;5095814;28;20456;-59
2021/05/02 13:01:35;;;;;;;3.90;1.80;;;;;;;;;;5096608;28;20436;-57
2021/05/02 13:04:04;;;;;;;7.40;2.80;;;;;;;;;;5095865;28;20462;-57
2021/05/02 13:06:31;;;;;;;9.97;3.97;;;;;;;;;;5095843;28;20444;-56
2021/05/02 13:09:07;;;;;;;7.07;3.90;;;;;;;;;;5096350;28;20517;-57
2021/05/02 13:11:34;;;;;;;10.30;2.37;;;;;;;;;;5096200;28;20452;-58
2021/05/02 13:14:18;;;;;;;7.60;4.53;;;;;;;;;;5096102;28;20451;-55
2021/05/02 13:16:55;;;;;;;5.40;2.97;;;;;;;;;;5096141;28;20468;-59
2021/05/02 13:19:33;;;;;;;9.00;3.00;;;;;;;;;;5091713;28;20561;-52
2021/05/02 13:22:28;;;;;;;4.43;2.37;;;;;;;;;;5081017;28;20428;-58
2021/05/02 13:25:23;;;;;;;3.47;1.50;;;;;;;;;;5096220;28;20494;-60
2021/05/02 13:27:51;;;;;;;5.10;2.00;;;;;;;;;;5096258;28;20456;-60
2021/05/02 13:30:42;;;;;;;3.30;1.40;;;;;;;;;;5096571;28;20471;-52
2021/05/02 13:33:15;;;;;;;3.10;1.53;;;;;;;;;;5073501;28;20476;-56
2021/05/02 13:36:17;;;;;;;9.07;1.60;;;;;;;;;;5095778;28;20507;-53
2021/05/02 13:38:45;;;;;;;5.70;1.70;;;;;;;;;;5096218;28;20537;-57
2021/05/02 13:41:13;;;;;;;5.13;1.70;;;;;;;;;;5095975;28;20530;-53
2021/05/02 13:43:40;;;;;;;6.00;2.50;;;;;;;;;;5095511;28;20725;-58
2021/05/02 13:46:07;;;;;;;8.03;2.80;;;;;;;;;;5094405;28;20512;-59
2021/05/02 13:48:35;;;;;;;4.20;1.90;;;;;;;;;;5095368;28;20463;-60
2021/05/02 13:51:04;;;;;;;4.77;2.10;;;;;;;;;;5094426;28;20456;-55
2021/05/02 13:53:36;;;;;;;3.70;1.73;;;;;;;;;;5094185;28;20448;-56
2021/05/02 13:56:04;;;;;;;3.87;2.37;;;;;;;;;;5094573;28;20486;-59
2021/05/02 13:58:55;;;;;;;5.53;2.60;;;;;;;;;;5086897;28;20455;-55
2021/05/02 14:01:23;;;;;;;7.13;2.20;;;;;;;;;;5094459;28;20532;-59
2021/05/02 14:03:50;;;;;;;6.57;2.73;;;;;;;;;;5095112;28;20460;-55
2021/05/02 14:06:18;;;;;;;5.30;2.40;;;;;;;;;;5087193;28;20452;-51
2021/05/02 14:08:47;;;;;;;3.87;2.00;;;;;;;;;;5094153;28;20437;-58
2021/05/02 14:11:16;;;;;;;5.83;2.20;;;;;;;;;;5090719;28;20451;-61
2021/05/02 14:13:43;;;;;;;4.90;2.00;;;;;;;;;;5092130;28;20448;-59
2021/05/02 14:16:10;;;;;;;8.43;2.53;;;;;;;;;;5078153;28;20527;-56
2021/05/02 14:18:55;;;;;;;7.00;2.07;;;;;;;;;;5081790;28;20508;-52
2021/05/02 14:21:22;;;;;;;4.90;2.83;;;;;;;;;;5094249;28;20448;-56
2021/05/02 14:23:49;;;;;;;8.80;3.17;;;;;;;;;;5093600;28;20452;-52
2021/05/02 14:26:32;;;;;;;7.47;2.63;;;;;;;;;;5093876;28;20444;-51
2021/05/02 14:29:04;;;;;;;8.33;2.43;;;;;;;;;;5089904;28;20515;-55
2021/05/02 14:31:41;;;;;;;5.60;2.63;;;;;;;;;;5094739;28;20456;-54
2021/05/02 14:34:11;;;;;;;4.00;1.90;;;;;;;;;;5073372;28;20562;-54
2021/05/02 14:36:51;;;;;;;5.33;2.23;;;;;;;;;;5092552;28;20545;-54
2021/05/02 14:39:17;;;;;;;6.23;2.90;;;;;;;;;;5093251;28;20533;-58
2021/05/02 14:41:58;;;;;;;6.23;2.90;;;;;;;;;;5093522;28;20466;-59
2021/05/02 14:44:26;;;;;;;6.30;2.20;;;;;;;;;;5081423;28;20457;-56
2021/05/02 14:46:53;;;;;;;3.70;2.13;;;;;;;;;;5093283;28;20507;-58
2021/05/02 14:49:36;;;;;;;4.80;2.77;;;;;;;;;;5093592;28;20518;-60
2021/05/02 14:52:04;;;;;;;6.13;2.77;;;;;;;;;;5093662;28;20486;-53
2021/05/02 14:54:33;;;;;;;4.23;2.63;;;;;;;;;;5093716;28;20503;-61
2021/05/02 14:57:34;;;;;;;6.97;2.60;;;;;;;;;;5093343;28;20491;-56
2021/05/02 15:00:04;;;;;;;4.73;2.80;;;;;;;;;;5092281;28;20530;-57
2021/05/02 15:02:32;;;;;;;4.80;2.50;;;;;;;;;;5094643;28;20454;-54
2021/05/02 15:05:02;;;;;;;5.90;2.17;;;;;;;;;;5094085;28;20458;-56
2021/05/02 15:07:29;;;;;;;5.30;2.73;;;;;;;;;;5093848;28;20574;-53
2021/05/02 15:09:58;;;;;;;5.30;2.87;;;;;;;;;;5094949;28;20436;-52
2021/05/02 15:13:06;;;;;;;8.00;4.00;;;;;;;;;;5094251;28;20460;-55
2021/05/02 15:15:37;;;;;;;7.30;3.07;;;;;;;;;;5086258;28;20476;-55
2021/05/02 15:18:07;;;;;;;10.07;4.90;;;;;;;;;;5077087;28;20456;-49
2021/05/02 15:23:40;;;;;;;5.70;2.70;;;;;;;;;;5094645;28;20430;-55
2021/05/02 15:26:08;;;;;;;5.53;2.53;;;;;;;;;;5093966;28;20491;-54
2021/05/02 15:28:42;;;;;;;10.23;3.40;;;;;;;;;;5094411;28;20494;-50
2021/05/02 15:31:15;;;;;;;7.07;3.27;;;;;;;;;;5089077;28;20487;-55
2021/05/02 15:33:45;;;;;;;7.03;3.00;;;;;;;;;;5093760;28;20523;-58